Terminal Aerodrome Forecast
Issued by NWS

Home | Current Version | Previous Version | Text Only | Print | Product List | Glossary Off
Versions: 1 2 3 4 5 6 7 8 9 10 11 12 13 14 15 16 17 18

753
FTUS43 KICT 222325
TAFHUT
TAF
KHUT 222325Z 2300/2324 06004KT 3SM BR OVC004
     FM230130 VRB04KT 2SM BR BKN005
     FM231500 03005KT P6SM BKN015
     FM231900 04007KT P6SM SCT250=

USA.gov is the U.S. government's official web portal to all federal, state and local government web resources and services.